WetterOnline ( http://www.wetteronline.ch )

Wetter aktuell Rostock

Aktuelles Wetter: Rostock-Warnemünde (10m)

6-stündlich | Neueste Meldungen
Ortszeit Temperatur Wetter
Di, 26.03. 13:00 6.8° C bewölkt
Di, 26.03. 7:00 5.2° C bewölkt
Di, 26.03. 1:00 4.7° C wolkenlos
Mo, 25.03. 19:00 6.0° C bedeckt
Mo, 25.03. 13:00 6.4° C wolkig
Mo, 25.03. 7:00 4.7° C bedeckt
Mo, 25.03. 1:00 4.3° C wolkenlos
So, 24.03. 19:00 5.7° C wolkig
Ortszeit Temperatur Wetter
Di, 26.03. 17:00 6.7° C bedeckt
Di, 26.03. 16:50 6.7° C bedeckt
Di, 26.03. 16:40 6.9° C wolkig
Di, 26.03. 16:30 6.9° C wolkig
Di, 26.03. 16:20 6.9° C wolkig
Di, 26.03. 16:10 7.0° C wolkig
Di, 26.03. 16:00 7.0° C wolkig
Di, 26.03. 15:30 7.0° C bedeckt
Di, 26.03. 15:00 7.1° C bedeckt
Di, 26.03. 14:30 7.1° C bedeckt
Di, 26.03. 14:00 7.1° C leicht bewölkt
Ortszeit Relative Feuchte Sichtweite
Di, 26.03. 13:00 70% 9 km
Di, 26.03. 7:00 86% 22 km
Di, 26.03. 1:00 92% 24 km
Mo, 25.03. 19:00 89% 30 km
Mo, 25.03. 13:00 78% 8 km
Mo, 25.03. 7:00 87% 35 km
Mo, 25.03. 1:00 76% 35 km
So, 24.03. 19:00 79% 30 km
Ortszeit Relative Feuchte Sichtweite
Di, 26.03. 17:00 78% 30 km
Di, 26.03. 16:50 78% -
Di, 26.03. 16:40 78% -
Di, 26.03. 16:30 76% 27 km
Di, 26.03. 16:20 76% -
Di, 26.03. 16:10 76% -
Di, 26.03. 16:00 75% 30 km
Di, 26.03. 15:30 75% 20 km
Di, 26.03. 15:00 73% 23 km
Di, 26.03. 14:30 73% 13 km
Di, 26.03. 14:00 70% -
Ortszeit Niederschlagsmenge Niederschlagsart
Di, 26.03. 13:00 0.1 l/m2 in 6 Std. Regen
Di, 26.03. 7:00 0.0 l/m2 in 12 Std. -
Di, 26.03. 1:00 0.0 l/m2 in 6 Std. -
Mo, 25.03. 19:00 0.3 l/m2 in 12 Std. Regen
Mo, 25.03. 13:00 0.1 l/m2 in 6 Std. Regen
Mo, 25.03. 7:00 1 l/m2 in 12 Std. Regen
Mo, 25.03. 1:00 0.0 l/m2 in 6 Std. -
So, 24.03. 19:00 0.0 l/m2 in 12 Std. -
Ortszeit Niederschlagsmenge Niederschlagsart
Di, 26.03. 17:00 0.0 l/m2 in 1 Std. -
Di, 26.03. 16:50 keine Meldung -
Di, 26.03. 16:40 keine Meldung -
Di, 26.03. 16:30 0.0 l/m2 in 1 Std. -
Di, 26.03. 16:20 keine Meldung -
Di, 26.03. 16:10 keine Meldung -
Di, 26.03. 16:00 0.0 l/m2 in 1 Std. -
Di, 26.03. 15:30 0.0 l/m2 in 1 Std. -
Di, 26.03. 15:00 0.0 l/m2 in 1 Std. -
Di, 26.03. 14:30 0.0 l/m2 in 1 Std. -
Di, 26.03. 14:00 0.0 l/m2 in 1 Std. -
Ortszeit Stärke Spitze Richtung
km/h Bft. km/h Grad Sektor
Di, 26.03. 13:00 37 5 57 300° NW
Di, 26.03. 7:00 40 6 58 280° W
Di, 26.03. 1:00 15 3 31 260° W
Mo, 25.03. 19:00 17 3 39 320° NW
Mo, 25.03. 13:00 33 5 48 300° NW
Mo, 25.03. 7:00 37 5 56 280° W
Mo, 25.03. 1:00 13 3 35 220° SW
So, 24.03. 19:00 11 2 25 270° W
Ortszeit Stärke Spitze Richtung
km/h Bft. km/h Grad Sektor
Di, 26.03. 17:00 19 3 26 310° NW
Di, 26.03. 16:50 19 3 - 310° NW
Di, 26.03. 16:40 18 3 - 310° NW
Di, 26.03. 16:30 18 3 25 300° NW
Di, 26.03. 16:20 18 3 - 300° NW
Di, 26.03. 16:10 18 3 - 300° NW
Di, 26.03. 16:00 22 4 - 300° NW
Di, 26.03. 15:30 - - - - -
Di, 26.03. 15:00 - - 41 - -
Di, 26.03. 14:30 30 5 41 300° NW
Di, 26.03. 14:00 33 5 46 300° NW
Ortszeit Untergrenze Bedeckung Gattung
total tief tief mittel hoch
Di, 26.03. 13:00 1260 m 7/8 7/8 - - -
Di, 26.03. 7:00 840 m 7/8 7/8 - - -
Di, 26.03. 1:00 - 0/8 0/8 - - -
Mo, 25.03. 19:00 690 m 8/8 8/8 - - -
Mo, 25.03. 13:00 1260 m 6/8 6/8 - - -
Mo, 25.03. 7:00 360 m 8/8 8/8 - - -
Mo, 25.03. 1:00 - 0/8 0/8 - - -
So, 24.03. 19:00 1410 m 7/8 3/8 - - -
Ortszeit Bedeckungsgrad in Achtel und Wolkenuntergrenze
Di, 26.03. 17:00 8(3000m)
Di, 26.03. 16:50 8(3000m)
Di, 26.03. 16:40 1(1380m) 8(3300m) 8(4200m)
Di, 26.03. 16:30 2(1290m) 6(3600m) 8(4200m)
Di, 26.03. 16:20 2(1290m) 6(3600m) 8(4200m)
Di, 26.03. 16:10 3(1260m) 4(3000m) 7(3900m)
Di, 26.03. 16:00 4(1260m) 7(3900m)
Di, 26.03. 15:30 7(4200m) 8(5100m)
Di, 26.03. 15:00 8(3900m) 8(5400m)
Di, 26.03. 14:30 8(3900m)
Di, 26.03. 14:00 1(1290m) 6(3900m) 8(4500m)
Ortszeit Luftdruck NN (hPa) Tendenz (hPa in 3 Std.)
Di, 26.03. 13:00 1022 + 0,6
Di, 26.03. 7:00 1021 - 0,5
Di, 26.03. 1:00 1023 + 0,5
Mo, 25.03. 19:00 1020 + 3,9
Mo, 25.03. 13:00 1013 + 2,2
Mo, 25.03. 7:00 1010 - 0,6
Mo, 25.03. 1:00 1015 - 3,8
So, 24.03. 19:00 1021 - 2,4
Ortszeit Luftdruck NN (hPa) Tendenz (hPa in 3 Std.)
Di, 26.03. 17:00 1024 + 1,6
Di, 26.03. 16:50 1024 keine Meldung
Di, 26.03. 16:40 1024 keine Meldung
Di, 26.03. 16:30 1024 + 1,7
Di, 26.03. 16:20 1024 keine Meldung
Di, 26.03. 16:10 1023 keine Meldung
Di, 26.03. 16:00 1023 + 1,4
Di, 26.03. 15:30 1023 + 1,3
Di, 26.03. 15:00 1023 + 1,2
Di, 26.03. 14:30 1022 + 0,9
Di, 26.03. 14:00 1022 + 0,6
Ortszeit Schneehöhe (cm)
Di, 26.03. 13:00 0
Di, 26.03. 7:00 0
Di, 26.03. 1:00 0
Mo, 25.03. 19:00 0
Mo, 25.03. 13:00 0
Mo, 25.03. 7:00 0
Mo, 25.03. 1:00 0
So, 24.03. 19:00 0
Ortszeit Schneehöhe (cm)
Di, 26.03. 17:00 0
Di, 26.03. 16:50 0
Di, 26.03. 16:40 0
Di, 26.03. 16:30 0
Di, 26.03. 16:20 0
Di, 26.03. 16:10 0
Di, 26.03. 16:00 0
Di, 26.03. 15:30 -
Di, 26.03. 15:00 -
Di, 26.03. 14:30 -
Di, 26.03. 14:00 -
Link zu dieser Seite / Seite empfehlen

Das Wetter in ...